Otwell, Indiana
Current Conditions -  °F | °C
As of 4:15 AM on Friday 31 Oct 2014 (Local Time) from KHNB Reporting Station
Overcast Overcast  
Wind Chill: 42°   Ceiling: 4200
Heat Index: 46°   Visibility: 10mi
Dew Point: 41°   Wind: 8mph
Humidity: 81%   Direction: 50°NE
Pressure: 30.02"   Gusts: NA
Location:  38.45°N, 87.09°W
Report Text: KHNB 310915Z AUTO 05007KT 10SM SCT029 OVC042 08/05 A3002 RMK AO1
Loading
Personal Weather Stations






























Interactive Weather Map
Tropical Storm Tracking
New forecast layout! Learn more

10-Day Weather Forecast

Advertisements
Track Severe Weather on mobile